sensor_id;sensor_type;location;lat;lon;timestamp;temperature;humidity
38398;DHT22;24179;52.094;4.408;2022-09-20T00:02:15;12.00;99.90
38398;DHT22;24179;52.094;4.408;2022-09-20T00:05:16;12.10;99.90
38398;DHT22;24179;52.094;4.408;2022-09-20T00:08:16;12.20;99.90
38398;DHT22;24179;52.094;4.408;2022-09-20T00:11:18;12.20;99.90
38398;DHT22;24179;52.094;4.408;2022-09-20T00:14:19;12.10;99.90
38398;DHT22;24179;52.094;4.408;2022-09-20T00:17:19;12.10;99.90
38398;DHT22;24179;52.094;4.408;2022-09-20T00:20:20;12.00;99.90
38398;DHT22;24179;52.094;4.408;2022-09-20T00:23:20;11.90;99.90
38398;DHT22;24179;52.094;4.408;2022-09-20T00:26:21;11.90;99.90
38398;DHT22;24179;52.094;4.408;2022-09-20T00:29:22;11.80;99.90
38398;DHT22;24179;52.094;4.408;2022-09-20T00:32:22;11.80;99.90
38398;DHT22;24179;52.094;4.408;2022-09-20T00:35:22;11.70;99.90
38398;DHT22;24179;52.094;4.408;2022-09-20T00:38:23;11.70;99.90
38398;DHT22;24179;52.094;4.408;2022-09-20T00:41:23;11.80;99.90
38398;DHT22;24179;52.094;4.408;2022-09-20T00:44:44;11.70;99.90
38398;DHT22;24179;52.094;4.408;2022-09-20T00:47:48;11.70;99.90
38398;DHT22;24179;52.094;4.408;2022-09-20T00:50:54;11.70;99.90
38398;DHT22;24179;52.094;4.408;2022-09-20T00:53:56;11.60;99.90
38398;DHT22;24179;52.094;4.408;2022-09-20T00:56:58;11.60;99.90
38398;DHT22;24179;52.094;4.408;2022-09-20T01:00:00;11.60;99.90
38398;DHT22;24179;52.094;4.408;2022-09-20T01:03:02;11.70;99.90
38398;DHT22;24179;52.094;4.408;2022-09-20T01:06:06;11.60;99.90
38398;DHT22;24179;52.094;4.408;2022-09-20T01:09:07;11.60;99.90
38398;DHT22;24179;52.094;4.408;2022-09-20T01:12:10;11.60;99.90
38398;DHT22;24179;52.094;4.408;2022-09-20T01:15:12;11.60;99.90
38398;DHT22;24179;52.094;4.408;2022-09-20T01:18:14;11.60;99.90
38398;DHT22;24179;52.094;4.408;2022-09-20T01:21:15;11.60;99.90
38398;DHT22;24179;52.094;4.408;2022-09-20T01:24:19;11.50;99.90
38398;DHT22;24179;52.094;4.408;2022-09-20T01:27:44;11.40;99.90
38398;DHT22;24179;52.094;4.408;2022-09-20T01:30:44;11.40;99.90
38398;DHT22;24179;52.094;4.408;2022-09-20T01:36:54;11.30;99.90
38398;DHT22;24179;52.094;4.408;2022-09-20T01:43:25;11.10;99.90
38398;DHT22;24179;52.094;4.408;2022-09-20T01:46:30;11.10;99.90
38398;DHT22;24179;52.094;4.408;2022-09-20T01:49:35;11.10;99.90
38398;DHT22;24179;52.094;4.408;2022-09-20T02:05:42;11.30;99.90
38398;DHT22;24179;52.094;4.408;2022-09-20T02:12:17;11.40;99.90
38398;DHT22;24179;52.094;4.408;2022-09-20T02:28:24;11.40;99.90
38398;DHT22;24179;52.094;4.408;2022-09-20T02:34:38;11.40;99.90
38398;DHT22;24179;52.094;4.408;2022-09-20T02:44:20;11.40;99.90
38398;DHT22;24179;52.094;4.408;2022-09-20T02:47:27;11.40;99.90
38398;DHT22;24179;52.094;4.408;2022-09-20T02:50:34;11.30;99.90
38398;DHT22;24179;52.094;4.408;2022-09-20T02:57:05;11.10;99.90
38398;DHT22;24179;52.094;4.408;2022-09-20T03:00:14;11.10;99.90
38398;DHT22;24179;52.094;4.408;2022-09-20T03:06:42;11.20;99.90
38398;DHT22;24179;52.094;4.408;2022-09-20T03:10:10;11.20;99.90
38398;DHT22;24179;52.094;4.408;2022-09-20T03:22:56;11.30;99.90
38398;DHT22;24179;52.094;4.408;2022-09-20T03:42:12;11.50;99.90
38398;DHT22;24179;52.094;4.408;2022-09-20T03:45:18;11.60;99.90
38398;DHT22;24179;52.094;4.408;2022-09-20T03:51:31;11.50;99.90
38398;DHT22;24179;52.094;4.408;2022-09-20T03:54:45;11.60;99.90
38398;DHT22;24179;52.094;4.408;2022-09-20T04:04:38;11.60;99.90
38398;DHT22;24179;52.094;4.408;2022-09-20T04:14:10;11.70;99.90
38398;DHT22;24179;52.094;4.408;2022-09-20T04:23:31;11.70;99.90
38398;DHT22;24179;52.094;4.408;2022-09-20T04:26:35;11.70;99.90
38398;DHT22;24179;52.094;4.408;2022-09-20T04:32:53;11.70;99.90
38398;DHT22;24179;52.094;4.408;2022-09-20T04:52:31;11.90;99.90
38398;DHT22;24179;52.094;4.408;2022-09-20T04:55:52;11.80;99.90
38398;DHT22;24179;52.094;4.408;2022-09-20T05:15:20;11.80;99.90
38398;DHT22;24179;52.094;4.408;2022-09-20T05:21:22;11.90;99.90
38398;DHT22;24179;52.094;4.408;2022-09-20T05:24:35;11.90;99.90
38398;DHT22;24179;52.094;4.408;2022-09-20T05:30:55;11.90;99.90
38398;DHT22;24179;52.094;4.408;2022-09-20T05:34:03;12.00;99.90
38398;DHT22;24179;52.094;4.408;2022-09-20T05:40:25;12.00;99.90
38398;DHT22;24179;52.094;4.408;2022-09-20T05:43:32;12.00;99.90
38398;DHT22;24179;52.094;4.408;2022-09-20T05:49:58;12.10;99.90
38398;DHT22;24179;52.094;4.408;2022-09-20T05:56:06;12.10;99.90
38398;DHT22;24179;52.094;4.408;2022-09-20T06:02:31;12.00;99.90
38398;DHT22;24179;52.094;4.408;2022-09-20T06:12:25;12.30;99.90
38398;DHT22;24179;52.094;4.408;2022-09-20T06:21:53;12.70;99.90
38398;DHT22;24179;52.094;4.408;2022-09-20T06:25:03;12.90;99.90
38398;DHT22;24179;52.094;4.408;2022-09-20T06:28:14;13.00;99.90
38398;DHT22;24179;52.094;4.408;2022-09-20T06:31:15;13.10;99.90
38398;DHT22;24179;52.094;4.408;2022-09-20T06:34:17;13.10;99.90
38398;DHT22;24179;52.094;4.408;2022-09-20T06:40:43;13.10;99.90
38398;DHT22;24179;52.094;4.408;2022-09-20T06:44:04;13.10;99.90
38398;DHT22;24179;52.094;4.408;2022-09-20T06:47:12;13.10;99.90
38398;DHT22;24179;52.094;4.408;2022-09-20T06:50:16;13.00;99.90
38398;DHT22;24179;52.094;4.408;2022-09-20T06:53:17;12.90;99.90
38398;DHT22;24179;52.094;4.408;2022-09-20T06:56:18;12.80;99.90
38398;DHT22;24179;52.094;4.408;2022-09-20T06:59:19;12.80;99.90
38398;DHT22;24179;52.094;4.408;2022-09-20T07:02:21;12.80;99.90
38398;DHT22;24179;52.094;4.408;2022-09-20T07:05:22;12.90;99.90
38398;DHT22;24179;52.094;4.408;2022-09-20T07:08:23;13.10;99.90
38398;DHT22;24179;52.094;4.408;2022-09-20T07:11:24;13.50;99.90
38398;DHT22;24179;52.094;4.408;2022-09-20T07:14:25;14.50;99.90
38398;DHT22;24179;52.094;4.408;2022-09-20T07:17:25;15.80;99.90
38398;DHT22;24179;52.094;4.408;2022-09-20T07:20:26;16.90;99.90
38398;DHT22;24179;52.094;4.408;2022-09-20T07:23:27;17.50;99.90
38398;DHT22;24179;52.094;4.408;2022-09-20T07:26:29;18.20;99.90
38398;DHT22;24179;52.094;4.408;2022-09-20T07:29:30;18.90;99.90
38398;DHT22;24179;52.094;4.408;2022-09-20T07:32:30;19.50;99.90
38398;DHT22;24179;52.094;4.408;2022-09-20T07:35:31;19.90;99.90
38398;DHT22;24179;52.094;4.408;2022-09-20T07:38:33;20.40;99.90
38398;DHT22;24179;52.094;4.408;2022-09-20T07:41:33;20.80;99.90
38398;DHT22;24179;52.094;4.408;2022-09-20T07:44:34;21.10;99.90
38398;DHT22;24179;52.094;4.408;2022-09-20T07:47:34;21.40;99.90
38398;DHT22;24179;52.094;4.408;2022-09-20T07:50:35;21.70;99.90
38398;DHT22;24179;52.094;4.408;2022-09-20T07:53:35;21.50;99.90
38398;DHT22;24179;52.094;4.408;2022-09-20T07:56:36;22.00;99.90
38398;DHT22;24179;52.094;4.408;2022-09-20T07:59:37;22.70;99.90
38398;DHT22;24179;52.094;4.408;2022-09-20T08:02:38;22.90;99.90
38398;DHT22;24179;52.094;4.408;2022-09-20T08:05:39;22.60;99.90
38398;DHT22;24179;52.094;4.408;2022-09-20T08:08:40;22.20;99.90
38398;DHT22;24179;52.094;4.408;2022-09-20T08:11:40;22.00;99.90
38398;DHT22;24179;52.094;4.408;2022-09-20T08:14:42;22.10;99.90
38398;DHT22;24179;52.094;4.408;2022-09-20T08:17:45;22.00;99.90
38398;DHT22;24179;52.094;4.408;2022-09-20T08:20:46;22.20;99.90
38398;DHT22;24179;52.094;4.408;2022-09-20T08:23:48;22.70;99.90
38398;DHT22;24179;52.094;4.408;2022-09-20T08:26:48;23.10;99.90
38398;DHT22;24179;52.094;4.408;2022-09-20T08:29:49;23.40;99.90
38398;DHT22;24179;52.094;4.408;2022-09-20T08:32:50;23.70;99.90
38398;DHT22;24179;52.094;4.408;2022-09-20T08:35:54;23.90;99.90
38398;DHT22;24179;52.094;4.408;2022-09-20T08:38:56;24.20;99.90
38398;DHT22;24179;52.094;4.408;2022-09-20T08:45:20;24.90;99.90
38398;DHT22;24179;52.094;4.408;2022-09-20T08:48:21;25.10;99.90
38398;DHT22;24179;52.094;4.408;2022-09-20T08:51:28;25.40;99.90
38398;DHT22;24179;52.094;4.408;2022-09-20T08:54:30;25.60;99.90
38398;DHT22;24179;52.094;4.408;2022-09-20T08:57:32;25.60;99.40
38398;DHT22;24179;52.094;4.408;2022-09-20T09:00:33;25.10;99.90
38398;DHT22;24179;52.094;4.408;2022-09-20T09:03:36;25.20;99.90
38398;DHT22;24179;52.094;4.408;2022-09-20T09:06:37;25.60;98.70
38398;DHT22;24179;52.094;4.408;2022-09-20T09:09:38;25.50;99.60
38398;DHT22;24179;52.094;4.408;2022-09-20T09:12:40;25.40;98.70
38398;DHT22;24179;52.094;4.408;2022-09-20T09:15:46;25.30;97.60
38398;DHT22;24179;52.094;4.408;2022-09-20T09:18:48;25.70;99.00
38398;DHT22;24179;52.094;4.408;2022-09-20T09:21:49;25.70;98.00
38398;DHT22;24179;52.094;4.408;2022-09-20T09:31:11;26.20;95.30
38398;DHT22;24179;52.094;4.408;2022-09-20T09:34:28;24.70;97.30
38398;DHT22;24179;52.094;4.408;2022-09-20T09:37:29;23.00;99.00
38398;DHT22;24179;52.094;4.408;2022-09-20T09:40:30;21.70;99.80
38398;DHT22;24179;52.094;4.408;2022-09-20T09:43:33;22.20;99.60
38398;DHT22;24179;52.094;4.408;2022-09-20T09:46:35;22.30;99.90
38398;DHT22;24179;52.094;4.408;2022-09-20T09:49:37;21.00;98.40
38398;DHT22;24179;52.094;4.408;2022-09-20T09:53:14;21.00;99.90
38398;DHT22;24179;52.094;4.408;2022-09-20T09:59:40;23.30;99.80
38398;DHT22;24179;52.094;4.408;2022-09-20T10:09:10;20.70;98.70
38398;DHT22;24179;52.094;4.408;2022-09-20T10:12:19;20.20;98.00
38398;DHT22;24179;52.094;4.408;2022-09-20T10:34:44;20.50;99.90
38398;DHT22;24179;52.094;4.408;2022-09-20T10:47:18;22.40;99.90
38398;DHT22;24179;52.094;4.408;2022-09-20T10:50:56;23.40;99.90
38398;DHT22;24179;52.094;4.408;2022-09-20T10:54:07;23.80;99.40
38398;DHT22;24179;52.094;4.408;2022-09-20T11:00:21;21.20;99.90
38398;DHT22;24179;52.094;4.408;2022-09-20T11:03:58;20.50;99.90
38398;DHT22;24179;52.094;4.408;2022-09-20T11:09:52;19.80;99.90
38398;DHT22;24179;52.094;4.408;2022-09-20T11:19:27;22.30;99.90
38398;DHT22;24179;52.094;4.408;2022-09-20T11:22:36;23.20;99.90
38398;DHT22;24179;52.094;4.408;2022-09-20T11:25:49;22.50;99.90
38398;DHT22;24179;52.094;4.408;2022-09-20T11:28:53;21.70;99.90
38398;DHT22;24179;52.094;4.408;2022-09-20T11:31:56;21.80;99.90
38398;DHT22;24179;52.094;4.408;2022-09-20T11:35:23;23.40;99.90
38398;DHT22;24179;52.094;4.408;2022-09-20T11:38:23;24.90;96.70
38398;DHT22;24179;52.094;4.408;2022-09-20T11:41:28;24.80;91.50
38398;DHT22;24179;52.094;4.408;2022-09-20T11:44:29;25.30;93.00
38398;DHT22;24179;52.094;4.408;2022-09-20T11:50:41;25.00;96.40
38398;DHT22;24179;52.094;4.408;2022-09-20T11:56:54;22.00;99.20
38398;DHT22;24179;52.094;4.408;2022-09-20T11:59:59;21.60;99.90
38398;DHT22;24179;52.094;4.408;2022-09-20T12:03:03;21.90;99.90
38398;DHT22;24179;52.094;4.408;2022-09-20T12:06:06;21.90;99.30
38398;DHT22;24179;52.094;4.408;2022-09-20T12:12:34;21.60;98.50
38398;DHT22;24179;52.094;4.408;2022-09-20T12:15:38;21.00;99.10
38398;DHT22;24179;52.094;4.408;2022-09-20T12:18:46;20.20;99.90
38398;DHT22;24179;52.094;4.408;2022-09-20T12:28:19;18.90;99.90
38398;DHT22;24179;52.094;4.408;2022-09-20T12:34:36;19.70;99.90
38398;DHT22;24179;52.094;4.408;2022-09-20T12:37:38;20.20;99.90
38398;DHT22;24179;52.094;4.408;2022-09-20T12:40:56;21.20;99.90
38398;DHT22;24179;52.094;4.408;2022-09-20T12:43:58;21.60;99.90
38398;DHT22;24179;52.094;4.408;2022-09-20T12:47:01;22.50;99.90
38398;DHT22;24179;52.094;4.408;2022-09-20T12:50:22;23.10;99.70
38398;DHT22;24179;52.094;4.408;2022-09-20T12:53:41;23.90;98.60
38398;DHT22;24179;52.094;4.408;2022-09-20T12:56:41;24.20;98.30
38398;DHT22;24179;52.094;4.408;2022-09-20T12:59:52;24.50;97.10
38398;DHT22;24179;52.094;4.408;2022-09-20T13:02:56;24.80;96.50
38398;DHT22;24179;52.094;4.408;2022-09-20T13:09:06;24.20;95.60
38398;DHT22;24179;52.094;4.408;2022-09-20T13:12:08;22.60;96.50
38398;DHT22;24179;52.094;4.408;2022-09-20T13:15:10;22.30;95.70
38398;DHT22;24179;52.094;4.408;2022-09-20T13:18:15;22.80;95.00
38398;DHT22;24179;52.094;4.408;2022-09-20T13:21:18;23.30;94.60
38398;DHT22;24179;52.094;4.408;2022-09-20T13:24:19;23.80;95.40
38398;DHT22;24179;52.094;4.408;2022-09-20T13:27:21;23.60;93.60
38398;DHT22;24179;52.094;4.408;2022-09-20T13:30:25;22.70;93.10
38398;DHT22;24179;52.094;4.408;2022-09-20T13:33:26;22.40;94.30
38398;DHT22;24179;52.094;4.408;2022-09-20T13:36:27;23.30;94.70
38398;DHT22;24179;52.094;4.408;2022-09-20T13:39:29;24.00;94.30
38398;DHT22;24179;52.094;4.408;2022-09-20T13:42:31;23.90;91.90
38398;DHT22;24179;52.094;4.408;2022-09-20T13:45:34;24.10;91.80
38398;DHT22;24179;52.094;4.408;2022-09-20T13:48:36;23.90;92.20
38398;DHT22;24179;52.094;4.408;2022-09-20T13:51:36;23.50;92.10
38398;DHT22;24179;52.094;4.408;2022-09-20T13:54:37;23.30;93.80
38398;DHT22;24179;52.094;4.408;2022-09-20T13:57:37;24.20;93.00
38398;DHT22;24179;52.094;4.408;2022-09-20T14:00:44;24.70;93.00
38398;DHT22;24179;52.094;4.408;2022-09-20T14:03:45;24.70;91.00
38398;DHT22;24179;52.094;4.408;2022-09-20T14:06:46;24.80;90.70
38398;DHT22;24179;52.094;4.408;2022-09-20T14:09:47;24.80;91.70
38398;DHT22;24179;52.094;4.408;2022-09-20T14:12:47;25.00;90.20
38398;DHT22;24179;52.094;4.408;2022-09-20T14:15:48;25.10;89.70
38398;DHT22;24179;52.094;4.408;2022-09-20T14:18:49;25.20;90.60
38398;DHT22;24179;52.094;4.408;2022-09-20T14:21:50;25.10;88.40
38398;DHT22;24179;52.094;4.408;2022-09-20T14:28:18;24.90;90.00
38398;DHT22;24179;52.094;4.408;2022-09-20T14:31:26;25.00;85.90
38398;DHT22;24179;52.094;4.408;2022-09-20T14:34:28;25.00;88.20
38398;DHT22;24179;52.094;4.408;2022-09-20T14:37:35;24.80;90.00
38398;DHT22;24179;52.094;4.408;2022-09-20T14:40:41;24.70;88.50
38398;DHT22;24179;52.094;4.408;2022-09-20T14:43:43;24.80;90.40
38398;DHT22;24179;52.094;4.408;2022-09-20T14:46:44;24.80;89.90
38398;DHT22;24179;52.094;4.408;2022-09-20T14:49:45;25.40;90.60
38398;DHT22;24179;52.094;4.408;2022-09-20T14:52:45;25.50;89.20
38398;DHT22;24179;52.094;4.408;2022-09-20T14:56:05;25.30;90.70
38398;DHT22;24179;52.094;4.408;2022-09-20T15:02:16;24.10;91.80
38398;DHT22;24179;52.094;4.408;2022-09-20T15:08:17;24.40;92.40
38398;DHT22;24179;52.094;4.408;2022-09-20T15:11:19;24.40;92.30
38398;DHT22;24179;52.094;4.408;2022-09-20T15:14:19;24.30;91.70
38398;DHT22;24179;52.094;4.408;2022-09-20T15:17:21;24.00;92.60
38398;DHT22;24179;52.094;4.408;2022-09-20T15:20:22;24.10;92.00
38398;DHT22;24179;52.094;4.408;2022-09-20T15:23:23;24.20;91.20
38398;DHT22;24179;52.094;4.408;2022-09-20T15:26:23;24.20;91.70
38398;DHT22;24179;52.094;4.408;2022-09-20T15:29:24;24.40;90.80
38398;DHT22;24179;52.094;4.408;2022-09-20T15:32:25;23.80;91.10
38398;DHT22;24179;52.094;4.408;2022-09-20T15:35:25;23.70;91.90
38398;DHT22;24179;52.094;4.408;2022-09-20T15:38:26;22.90;92.70
38398;DHT22;24179;52.094;4.408;2022-09-20T15:41:27;21.30;93.30
38398;DHT22;24179;52.094;4.408;2022-09-20T15:44:27;19.90;94.90
38398;DHT22;24179;52.094;4.408;2022-09-20T15:47:28;18.90;97.60
38398;DHT22;24179;52.094;4.408;2022-09-20T15:50:30;18.20;98.60
38398;DHT22;24179;52.094;4.408;2022-09-20T15:53:31;17.80;99.90
38398;DHT22;24179;52.094;4.408;2022-09-20T15:56:33;17.50;99.90
38398;DHT22;24179;52.094;4.408;2022-09-20T15:59:35;17.20;99.90
38398;DHT22;24179;52.094;4.408;2022-09-20T16:02:35;17.00;99.90
38398;DHT22;24179;52.094;4.408;2022-09-20T16:05:36;16.90;99.90
38398;DHT22;24179;52.094;4.408;2022-09-20T16:08:37;16.80;99.90
38398;DHT22;24179;52.094;4.408;2022-09-20T16:11:38;16.60;99.90
38398;DHT22;24179;52.094;4.408;2022-09-20T16:14:38;16.50;99.90
38398;DHT22;24179;52.094;4.408;2022-09-20T16:17:39;16.40;99.90
38398;DHT22;24179;52.094;4.408;2022-09-20T16:21:04;16.30;99.90
38398;DHT22;24179;52.094;4.408;2022-09-20T16:24:05;16.20;99.90
38398;DHT22;24179;52.094;4.408;2022-09-20T16:27:06;16.10;99.90
38398;DHT22;24179;52.094;4.408;2022-09-20T16:30:07;16.00;99.90
38398;DHT22;24179;52.094;4.408;2022-09-20T16:33:09;15.90;99.90
38398;DHT22;24179;52.094;4.408;2022-09-20T16:36:11;15.80;99.90
38398;DHT22;24179;52.094;4.408;2022-09-20T16:39:12;15.70;99.90
38398;DHT22;24179;52.094;4.408;2022-09-20T16:42:12;15.60;99.90
38398;DHT22;24179;52.094;4.408;2022-09-20T16:45:13;15.50;99.90
38398;DHT22;24179;52.094;4.408;2022-09-20T16:48:15;15.40;99.90
38398;DHT22;24179;52.094;4.408;2022-09-20T16:51:15;15.30;99.90
38398;DHT22;24179;52.094;4.408;2022-09-20T16:54:16;15.30;99.90
38398;DHT22;24179;52.094;4.408;2022-09-20T16:57:16;15.20;99.90
38398;DHT22;24179;52.094;4.408;2022-09-20T17:00:17;15.10;99.90
38398;DHT22;24179;52.094;4.408;2022-09-20T17:03:21;15.00;99.90
38398;DHT22;24179;52.094;4.408;2022-09-20T17:06:26;14.90;99.90
38398;DHT22;24179;52.094;4.408;2022-09-20T17:09:27;14.80;99.90
38398;DHT22;24179;52.094;4.408;2022-09-20T17:12:28;14.70;99.90
38398;DHT22;24179;52.094;4.408;2022-09-20T17:15:32;14.60;99.90
38398;DHT22;24179;52.094;4.408;2022-09-20T17:18:33;14.40;99.90
38398;DHT22;24179;52.094;4.408;2022-09-20T17:21:35;14.30;99.90
38398;DHT22;24179;52.094;4.408;2022-09-20T17:24:36;14.20;99.90
38398;DHT22;24179;52.094;4.408;2022-09-20T17:27:36;14.00;99.90
38398;DHT22;24179;52.094;4.408;2022-09-20T17:30:38;14.00;99.90
38398;DHT22;24179;52.094;4.408;2022-09-20T17:33:39;13.80;99.90
38398;DHT22;24179;52.094;4.408;2022-09-20T17:36:41;13.70;99.90
38398;DHT22;24179;52.094;4.408;2022-09-20T17:39:41;13.60;99.90
38398;DHT22;24179;52.094;4.408;2022-09-20T17:42:42;13.50;99.90
38398;DHT22;24179;52.094;4.408;2022-09-20T17:45:43;13.40;99.90
38398;DHT22;24179;52.094;4.408;2022-09-20T17:48:44;13.30;99.90
38398;DHT22;24179;52.094;4.408;2022-09-20T17:51:53;13.10;99.90
38398;DHT22;24179;52.094;4.408;2022-09-20T17:54:53;13.10;99.90
38398;DHT22;24179;52.094;4.408;2022-09-20T17:57:54;13.00;99.90
38398;DHT22;24179;52.094;4.408;2022-09-20T18:01:00;12.90;99.90
38398;DHT22;24179;52.094;4.408;2022-09-20T18:04:01;12.80;99.90
38398;DHT22;24179;52.094;4.408;2022-09-20T18:07:01;12.70;99.90
38398;DHT22;24179;52.094;4.408;2022-09-20T18:10:03;12.50;99.90
38398;DHT22;24179;52.094;4.408;2022-09-20T18:13:03;12.50;99.90
38398;DHT22;24179;52.094;4.408;2022-09-20T18:16:08;12.40;99.90
38398;DHT22;24179;52.094;4.408;2022-09-20T18:19:09;12.40;99.90
38398;DHT22;24179;52.094;4.408;2022-09-20T18:22:09;12.40;99.90
38398;DHT22;24179;52.094;4.408;2022-09-20T18:25:10;12.30;99.90
38398;DHT22;24179;52.094;4.408;2022-09-20T18:28:10;12.30;99.90
38398;DHT22;24179;52.094;4.408;2022-09-20T18:31:11;12.20;99.90
38398;DHT22;24179;52.094;4.408;2022-09-20T18:34:12;12.10;99.90
38398;DHT22;24179;52.094;4.408;2022-09-20T18:37:16;12.10;99.90
38398;DHT22;24179;52.094;4.408;2022-09-20T18:40:17;12.00;99.90
38398;DHT22;24179;52.094;4.408;2022-09-20T18:43:19;11.90;99.90
38398;DHT22;24179;52.094;4.408;2022-09-20T18:46:19;11.80;99.90
38398;DHT22;24179;52.094;4.408;2022-09-20T18:49:24;11.80;99.90
38398;DHT22;24179;52.094;4.408;2022-09-20T18:52:24;11.70;99.90
38398;DHT22;24179;52.094;4.408;2022-09-20T18:55:25;11.60;99.90
38398;DHT22;24179;52.094;4.408;2022-09-20T18:58:38;11.50;99.90
38398;DHT22;24179;52.094;4.408;2022-09-20T19:05:20;11.50;99.90
38398;DHT22;24179;52.094;4.408;2022-09-20T19:08:22;11.50;99.90
38398;DHT22;24179;52.094;4.408;2022-09-20T19:11:25;11.50;99.90
38398;DHT22;24179;52.094;4.408;2022-09-20T19:14:38;11.50;99.90
38398;DHT22;24179;52.094;4.408;2022-09-20T19:21:10;11.50;99.90
38398;DHT22;24179;52.094;4.408;2022-09-20T19:24:24;11.50;99.90
38398;DHT22;24179;52.094;4.408;2022-09-20T19:27:27;11.50;99.90
38398;DHT22;24179;52.094;4.408;2022-09-20T19:30:29;11.50;99.90
38398;DHT22;24179;52.094;4.408;2022-09-20T19:33:30;11.50;99.90
38398;DHT22;24179;52.094;4.408;2022-09-20T19:36:33;11.50;99.90
38398;DHT22;24179;52.094;4.408;2022-09-20T19:46:22;11.40;99.90
38398;DHT22;24179;52.094;4.408;2022-09-20T19:49:44;11.60;99.90
38398;DHT22;24179;52.094;4.408;2022-09-20T19:52:46;11.70;99.90
38398;DHT22;24179;52.094;4.408;2022-09-20T19:55:49;11.80;99.90
38398;DHT22;24179;52.094;4.408;2022-09-20T19:58:51;12.00;99.90
38398;DHT22;24179;52.094;4.408;2022-09-20T20:01:52;12.10;99.90
38398;DHT22;24179;52.094;4.408;2022-09-20T20:04:53;12.20;99.90
38398;DHT22;24179;52.094;4.408;2022-09-20T20:14:18;12.50;99.90
38398;DHT22;24179;52.094;4.408;2022-09-20T20:20:44;12.70;99.90
38398;DHT22;24179;52.094;4.408;2022-09-20T20:26:50;12.90;99.90
38398;DHT22;24179;52.094;4.408;2022-09-20T20:29:51;13.00;99.90
38398;DHT22;24179;52.094;4.408;2022-09-20T20:32:55;13.00;99.90
38398;DHT22;24179;52.094;4.408;2022-09-20T20:35:59;13.00;99.90
38398;DHT22;24179;52.094;4.408;2022-09-20T20:39:00;13.10;99.90
38398;DHT22;24179;52.094;4.408;2022-09-20T20:42:02;13.10;99.90
38398;DHT22;24179;52.094;4.408;2022-09-20T20:45:03;13.10;99.90
38398;DHT22;24179;52.094;4.408;2022-09-20T20:48:05;13.10;99.90
38398;DHT22;24179;52.094;4.408;2022-09-20T20:51:06;13.00;99.90
38398;DHT22;24179;52.094;4.408;2022-09-20T20:54:08;13.10;99.90
38398;DHT22;24179;52.094;4.408;2022-09-20T20:57:09;13.10;99.90
38398;DHT22;24179;52.094;4.408;2022-09-20T21:00:10;13.20;99.90
38398;DHT22;24179;52.094;4.408;2022-09-20T21:03:10;13.20;99.90
38398;DHT22;24179;52.094;4.408;2022-09-20T21:06:11;13.20;99.90
38398;DHT22;24179;52.094;4.408;2022-09-20T21:09:12;13.20;99.90
38398;DHT22;24179;52.094;4.408;2022-09-20T21:12:12;13.20;99.90
38398;DHT22;24179;52.094;4.408;2022-09-20T21:15:13;13.20;99.90
38398;DHT22;24179;52.094;4.408;2022-09-20T21:18:14;13.20;99.90
38398;DHT22;24179;52.094;4.408;2022-09-20T21:24:15;13.00;99.90
38398;DHT22;24179;52.094;4.408;2022-09-20T21:27:18;12.90;99.90
38398;DHT22;24179;52.094;4.408;2022-09-20T21:30:20;12.70;99.90
38398;DHT22;24179;52.094;4.408;2022-09-20T21:33:20;12.50;99.90
38398;DHT22;24179;52.094;4.408;2022-09-20T21:36:23;12.30;99.90
38398;DHT22;24179;52.094;4.408;2022-09-20T21:39:23;12.10;99.90
38398;DHT22;24179;52.094;4.408;2022-09-20T21:42:24;11.90;99.90
38398;DHT22;24179;52.094;4.408;2022-09-20T21:45:26;11.80;99.90
38398;DHT22;24179;52.094;4.408;2022-09-20T21:48:28;11.60;99.90
38398;DHT22;24179;52.094;4.408;2022-09-20T21:51:29;11.40;99.90
38398;DHT22;24179;52.094;4.408;2022-09-20T21:54:30;11.30;99.90
38398;DHT22;24179;52.094;4.408;2022-09-20T21:57:30;11.30;99.90
38398;DHT22;24179;52.094;4.408;2022-09-20T22:00:31;11.30;99.90
38398;DHT22;24179;52.094;4.408;2022-09-20T22:03:33;11.30;99.90
38398;DHT22;24179;52.094;4.408;2022-09-20T22:06:35;11.30;99.90
38398;DHT22;24179;52.094;4.408;2022-09-20T22:09:36;11.50;99.90
38398;DHT22;24179;52.094;4.408;2022-09-20T22:12:36;11.60;99.90
38398;DHT22;24179;52.094;4.408;2022-09-20T22:15:37;11.70;99.90
38398;DHT22;24179;52.094;4.408;2022-09-20T22:18:38;11.80;99.90
38398;DHT22;24179;52.094;4.408;2022-09-20T22:21:42;11.80;99.90
38398;DHT22;24179;52.094;4.408;2022-09-20T22:24:43;11.70;99.90
38398;DHT22;24179;52.094;4.408;2022-09-20T22:27:44;11.60;99.90
38398;DHT22;24179;52.094;4.408;2022-09-20T22:30:44;11.50;99.90
38398;DHT22;24179;52.094;4.408;2022-09-20T22:33:46;11.40;99.90
38398;DHT22;24179;52.094;4.408;2022-09-20T22:36:47;11.30;99.90
38398;DHT22;24179;52.094;4.408;2022-09-20T22:39:48;11.20;99.90
38398;DHT22;24179;52.094;4.408;2022-09-20T22:42:48;11.20;99.90
38398;DHT22;24179;52.094;4.408;2022-09-20T22:45:49;11.20;99.90
38398;DHT22;24179;52.094;4.408;2022-09-20T22:48:49;11.20;99.90
38398;DHT22;24179;52.094;4.408;2022-09-20T22:51:50;11.20;99.90
38398;DHT22;24179;52.094;4.408;2022-09-20T22:54:50;11.20;99.90
38398;DHT22;24179;52.094;4.408;2022-09-20T22:57:51;11.30;99.90
38398;DHT22;24179;52.094;4.408;2022-09-20T23:00:51;11.30;99.90
38398;DHT22;24179;52.094;4.408;2022-09-20T23:03:53;11.50;99.90
38398;DHT22;24179;52.094;4.408;2022-09-20T23:06:54;11.60;99.90
38398;DHT22;24179;52.094;4.408;2022-09-20T23:09:55;11.70;99.90
38398;DHT22;24179;52.094;4.408;2022-09-20T23:12:55;11.80;99.90
38398;DHT22;24179;52.094;4.408;2022-09-20T23:15:56;11.90;99.90
38398;DHT22;24179;52.094;4.408;2022-09-20T23:18:57;11.90;99.90
38398;DHT22;24179;52.094;4.408;2022-09-20T23:21:58;12.00;99.90
38398;DHT22;24179;52.094;4.408;2022-09-20T23:24:58;12.10;99.90
38398;DHT22;24179;52.094;4.408;2022-09-20T23:27:59;12.10;99.90
38398;DHT22;24179;52.094;4.408;2022-09-20T23:31:00;12.20;99.90
38398;DHT22;24179;52.094;4.408;2022-09-20T23:34:02;12.20;99.90
38398;DHT22;24179;52.094;4.408;2022-09-20T23:37:03;12.20;99.90
38398;DHT22;24179;52.094;4.408;2022-09-20T23:40:03;12.30;99.90
38398;DHT22;24179;52.094;4.408;2022-09-20T23:43:04;12.30;99.90
38398;DHT22;24179;52.094;4.408;2022-09-20T23:46:05;12.30;99.90
38398;DHT22;24179;52.094;4.408;2022-09-20T23:49:05;12.30;99.90
38398;DHT22;24179;52.094;4.408;2022-09-20T23:52:08;12.30;99.90
38398;DHT22;24179;52.094;4.408;2022-09-20T23:55:08;12.40;99.90
38398;DHT22;24179;52.094;4.408;2022-09-20T23:58:09;12.30;99.90
